createdAt,value
2022-10-31T00:06:13.178Z,28.33
2022-10-31T00:18:52.082Z,30.00
2022-10-31T00:26:48.220Z,31.00
2022-10-31T00:31:06.768Z,31.00
2022-10-31T00:35:02.455Z,29.33
2022-10-31T01:31:56.055Z,32.67
2022-10-31T05:12:05.499Z,40.00
2022-10-31T06:03:39.596Z,37.33
2022-10-31T08:10:28.902Z,40.00
2022-10-31T08:37:07.708Z,36.67
2022-10-31T08:40:38.984Z,36.00
2022-10-31T08:43:52.824Z,36.00
2022-10-31T08:46:56.735Z,38.33
2022-10-31T08:50:32.177Z,36.00
2022-10-31T08:54:42.017Z,37.33
2022-10-31T09:03:33.997Z,34.00
2022-10-31T09:06:46.455Z,33.00
2022-10-31T09:09:59.510Z,34.75
2022-10-31T09:13:09.269Z,32.25
2022-10-31T09:16:48.076Z,32.50
2022-10-31T10:16:23.921Z,26.25
2022-10-31T10:19:27.148Z,26.25
2022-10-31T10:22:43.843Z,26.00
2022-10-31T10:25:53.683Z,25.00
2022-10-31T10:29:04.041Z,26.00
2022-10-31T10:32:19.850Z,25.00
2022-10-31T10:35:35.375Z,22.00
2022-10-31T10:38:53.690Z,22.00
2022-10-31T10:42:17.983Z,23.00
2022-10-31T10:45:40.698Z,22.00
2022-10-31T10:49:09.273Z,21.75
2022-10-31T10:52:50.302Z,21.50
2022-10-31T10:56:01.287Z,22.00
2022-10-31T10:59:04.885Z,21.00
2022-10-31T11:02:19.848Z,22.00
2022-10-31T11:05:30.195Z,20.75
2022-10-31T11:08:34.962Z,20.75
2022-10-31T11:11:40.998Z,16.25
2022-10-31T11:14:57.164Z,19.25
2022-10-31T11:17:59.618Z,17.50
2022-10-31T11:21:05.464Z,19.50
2022-10-31T11:24:10.993Z,17.00
2022-10-31T11:27:22.492Z,17.75
2022-10-31T11:30:25.128Z,19.00
2022-10-31T11:33:40.989Z,19.00
2022-10-31T11:36:45.492Z,20.75
2022-10-31T11:39:55.056Z,19.75
2022-10-31T11:43:02.120Z,19.50
2022-10-31T11:46:19.501Z,21.25
2022-10-31T11:49:36.914Z,20.50
2022-10-31T11:52:42.893Z,21.50
2022-10-31T12:02:22.497Z,21.25
2022-10-31T12:34:35.878Z,21.50
2022-10-31T12:39:57.024Z,21.25
2022-10-31T13:41:57.792Z,25.00
2022-10-31T13:46:30.141Z,25.00
2022-10-31T13:49:41.805Z,22.00
2022-10-31T13:52:44.593Z,24.25
2022-10-31T13:55:51.476Z,23.00
2022-10-31T13:59:02.632Z,23.75
2022-10-31T14:02:16.422Z,22.75
2022-10-31T14:05:56.343Z,22.00
2022-10-31T14:09:01.111Z,24.00
2022-10-31T14:12:24.144Z,22.50
2022-10-31T14:17:04.008Z,22.75
2022-10-31T14:21:54.319Z,22.00
2022-10-31T14:24:59.446Z,19.75
2022-10-31T14:28:22.485Z,22.75
2022-10-31T14:31:40.485Z,20.00
2022-10-31T14:35:11.413Z,21.75
2022-10-31T14:38:46.681Z,21.00
2022-10-31T14:42:17.520Z,26.00
2022-10-31T14:45:41.445Z,25.50
2022-10-31T14:49:38.238Z,24.00
2022-10-31T14:52:42.099Z,26.75
2022-10-31T14:55:49.828Z,26.00
2022-10-31T14:58:52.672Z,27.50
2022-10-31T15:02:00.023Z,27.00
2022-10-31T15:05:08.287Z,26.50
2022-10-31T15:08:15.932Z,27.75
2022-10-31T15:11:25.815Z,29.25
2022-10-31T15:14:31.307Z,29.75
2022-10-31T15:17:33.801Z,28.00
2022-10-31T15:20:45.088Z,27.75
2022-10-31T15:23:48.138Z,30.00
2022-10-31T15:26:53.224Z,29.00
2022-10-31T15:29:57.616Z,27.50
2022-10-31T15:33:00.344Z,27.25
2022-10-31T15:36:04.012Z,28.00
2022-10-31T15:39:06.753Z,27.25
2022-10-31T15:42:34.954Z,28.50
2022-10-31T15:45:37.966Z,29.75
2022-10-31T15:48:45.717Z,24.50
2022-10-31T15:51:54.608Z,28.25
2022-10-31T15:55:23.903Z,27.50
2022-10-31T15:58:45.144Z,28.25
2022-10-31T16:02:11.833Z,30.00
2022-10-31T16:05:25.511Z,27.75
2022-10-31T16:08:56.611Z,26.50
2022-10-31T16:12:53.270Z,28.50
2022-10-31T16:26:13.751Z,27.00
2022-10-31T16:30:23.876Z,30.00
2022-10-31T16:59:48.870Z,24.50
2022-10-31T17:03:31.590Z,31.00
2022-10-31T17:06:44.291Z,29.75
2022-10-31T17:09:53.657Z,27.75
2022-10-31T17:13:03.549Z,31.00
2022-10-31T17:16:11.972Z,28.00
2022-10-31T17:19:15.754Z,27.50
2022-10-31T17:22:19.080Z,26.25
2022-10-31T17:25:59.325Z,25.50
2022-10-31T17:29:33.250Z,26.00
2022-10-31T17:48:04.405Z,27.50
2022-10-31T17:51:54.046Z,28.00
2022-10-31T17:55:14.728Z,31.25
2022-10-31T17:58:20.747Z,32.00
2022-10-31T18:11:28.517Z,31.50
2022-10-31T18:15:13.175Z,31.00
2022-10-31T18:19:32.236Z,33.25
2022-10-31T18:23:03.132Z,33.00
2022-10-31T18:35:51.998Z,33.25
2022-10-31T18:39:21.593Z,33.25
2022-10-31T18:42:31.014Z,31.00
2022-10-31T18:45:46.568Z,31.00
2022-10-31T18:49:07.570Z,33.00
2022-10-31T18:52:47.848Z,31.75
2022-10-31T18:59:54.524Z,31.00
2022-10-31T19:03:35.452Z,29.25
2022-10-31T19:17:14.930Z,31.00
2022-10-31T19:26:01.366Z,31.00
2022-10-31T19:34:20.826Z,30.00
2022-10-31T19:51:09.680Z,32.25
2022-10-31T19:58:01.822Z,30.75
2022-10-31T20:01:22.141Z,30.75
2022-10-31T20:10:10.258Z,30.50
2022-10-31T20:18:10.787Z,30.75
2022-10-31T20:21:20.507Z,26.00
2022-10-31T20:39:30.371Z,26.00
2022-10-31T20:42:34.471Z,24.50
2022-10-31T20:45:40.986Z,28.50
2022-10-31T20:48:45.669Z,26.00
2022-10-31T21:21:42.895Z,27.00
2022-10-31T21:24:45.948Z,28.00
2022-10-31T21:27:48.518Z,28.00
2022-10-31T21:30:52.166Z,25.50
2022-10-31T21:33:55.539Z,26.75
2022-10-31T21:36:58.505Z,25.00
2022-10-31T21:40:01.100Z,29.00
2022-10-31T21:43:04.732Z,25.00
2022-10-31T21:46:16.259Z,24.50
2022-10-31T21:49:19.100Z,25.75
2022-10-31T21:52:21.631Z,26.00
2022-10-31T21:55:24.536Z,25.25
2022-10-31T21:58:27.603Z,25.00
2022-10-31T22:01:33.142Z,26.00
2022-10-31T22:04:35.909Z,24.50
2022-10-31T22:07:40.060Z,26.00
2022-10-31T22:10:42.723Z,25.00
2022-10-31T22:13:47.997Z,27.25
2022-10-31T22:17:16.559Z,25.50
2022-10-31T22:20:25.464Z,24.25
2022-10-31T22:23:28.841Z,25.25
2022-10-31T22:26:34.502Z,24.50
2022-10-31T22:29:37.939Z,24.75
2022-10-31T22:32:42.029Z,24.25
2022-10-31T22:35:45.330Z,24.25
2022-10-31T22:38:49.573Z,26.00
2022-10-31T22:41:53.420Z,24.00
2022-10-31T22:44:57.917Z,25.75
2022-10-31T22:48:01.577Z,24.00
2022-10-31T22:51:28.117Z,24.00
2022-10-31T22:54:31.519Z,25.00
2022-10-31T22:57:34.426Z,25.00
2022-10-31T23:00:37.084Z,24.00
2022-10-31T23:03:40.103Z,25.75
2022-10-31T23:06:43.502Z,24.50
2022-10-31T23:09:46.295Z,23.75
2022-10-31T23:13:07.789Z,24.00
2022-10-31T23:16:12.300Z,24.50
2022-10-31T23:19:29.193Z,25.75
2022-10-31T23:22:31.979Z,24.00
2022-10-31T23:25:53.293Z,25.00
2022-10-31T23:28:55.950Z,24.00
2022-10-31T23:31:59.609Z,24.00
2022-10-31T23:35:05.786Z,24.75
2022-10-31T23:38:08.599Z,24.50
2022-10-31T23:41:11.673Z,25.00
2022-10-31T23:44:14.327Z,22.50
2022-10-31T23:47:18.834Z,24.00
2022-10-31T23:50:24.698Z,24.00
2022-10-31T23:53:27.730Z,24.00
2022-10-31T23:56:30.395Z,20.50
2022-10-31T23:59:33.349Z,24.00
